sensor_id;sensor_type;location;lat;lon;timestamp;temperature;humidity
32173;DHT22;18679;45.190;5.722;2023-07-02T00:00:00;23.10;64.90
32173;DHT22;18679;45.190;5.722;2023-07-02T00:03:01;23.10;64.80
32173;DHT22;18679;45.190;5.722;2023-07-02T00:06:03;23.10;64.70
32173;DHT22;18679;45.190;5.722;2023-07-02T00:09:03;23.10;64.50
32173;DHT22;18679;45.190;5.722;2023-07-02T00:12:05;23.10;64.70
32173;DHT22;18679;45.190;5.722;2023-07-02T00:15:07;23.10;64.70
32173;DHT22;18679;45.190;5.722;2023-07-02T00:18:08;23.00;64.80
32173;DHT22;18679;45.190;5.722;2023-07-02T00:21:09;23.10;64.90
32173;DHT22;18679;45.190;5.722;2023-07-02T00:24:14;23.10;64.80
32173;DHT22;18679;45.190;5.722;2023-07-02T00:27:16;23.10;64.80
32173;DHT22;18679;45.190;5.722;2023-07-02T00:30:17;23.10;64.70
32173;DHT22;18679;45.190;5.722;2023-07-02T00:33:18;23.20;65.30
32173;DHT22;18679;45.190;5.722;2023-07-02T00:36:19;23.20;64.40
32173;DHT22;18679;45.190;5.722;2023-07-02T00:39:20;23.20;64.40
32173;DHT22;18679;45.190;5.722;2023-07-02T00:42:21;23.10;64.70
32173;DHT22;18679;45.190;5.722;2023-07-02T00:45:24;23.00;65.40
32173;DHT22;18679;45.190;5.722;2023-07-02T00:48:27;22.70;66.20
32173;DHT22;18679;45.190;5.722;2023-07-02T00:51:28;22.40;66.70
32173;DHT22;18679;45.190;5.722;2023-07-02T00:54:30;22.20;67.20
32173;DHT22;18679;45.190;5.722;2023-07-02T00:57:32;22.10;67.70
32173;DHT22;18679;45.190;5.722;2023-07-02T01:00:33;22.00;67.90
32173;DHT22;18679;45.190;5.722;2023-07-02T01:03:33;21.90;68.10
32173;DHT22;18679;45.190;5.722;2023-07-02T01:06:37;21.80;68.50
32173;DHT22;18679;45.190;5.722;2023-07-02T01:09:41;21.80;68.80
32173;DHT22;18679;45.190;5.722;2023-07-02T01:12:43;21.70;68.80
32173;DHT22;18679;45.190;5.722;2023-07-02T01:15:45;21.70;68.90
32173;DHT22;18679;45.190;5.722;2023-07-02T01:18:46;21.70;69.00
32173;DHT22;18679;45.190;5.722;2023-07-02T01:21:47;21.60;69.00
32173;DHT22;18679;45.190;5.722;2023-07-02T01:24:50;21.70;69.00
32173;DHT22;18679;45.190;5.722;2023-07-02T01:27:52;21.70;68.90
32173;DHT22;18679;45.190;5.722;2023-07-02T01:30:54;21.80;68.90
32173;DHT22;18679;45.190;5.722;2023-07-02T01:33:54;21.90;69.10
32173;DHT22;18679;45.190;5.722;2023-07-02T01:36:55;21.90;69.10
32173;DHT22;18679;45.190;5.722;2023-07-02T01:39:56;22.00;69.20
32173;DHT22;18679;45.190;5.722;2023-07-02T01:42:57;22.10;69.20
32173;DHT22;18679;45.190;5.722;2023-07-02T01:45:58;22.10;69.20
32173;DHT22;18679;45.190;5.722;2023-07-02T01:48:59;22.20;69.30
32173;DHT22;18679;45.190;5.722;2023-07-02T01:52:00;22.20;69.30
32173;DHT22;18679;45.190;5.722;2023-07-02T01:55:02;22.30;69.20
32173;DHT22;18679;45.190;5.722;2023-07-02T01:58:05;22.20;69.10
32173;DHT22;18679;45.190;5.722;2023-07-02T02:01:06;22.30;69.10
32173;DHT22;18679;45.190;5.722;2023-07-02T02:04:08;22.40;69.00
32173;DHT22;18679;45.190;5.722;2023-07-02T02:07:09;22.40;68.90
32173;DHT22;18679;45.190;5.722;2023-07-02T02:10:10;22.40;68.70
32173;DHT22;18679;45.190;5.722;2023-07-02T02:13:11;22.40;68.40
32173;DHT22;18679;45.190;5.722;2023-07-02T02:16:12;22.40;68.20
32173;DHT22;18679;45.190;5.722;2023-07-02T02:19:12;22.40;68.20
32173;DHT22;18679;45.190;5.722;2023-07-02T02:22:15;22.40;68.10
32173;DHT22;18679;45.190;5.722;2023-07-02T02:25:16;22.40;68.00
32173;DHT22;18679;45.190;5.722;2023-07-02T02:28:17;22.40;68.10
32173;DHT22;18679;45.190;5.722;2023-07-02T02:31:18;22.40;68.00
32173;DHT22;18679;45.190;5.722;2023-07-02T02:34:19;22.30;67.80
32173;DHT22;18679;45.190;5.722;2023-07-02T02:37:20;22.30;67.60
32173;DHT22;18679;45.190;5.722;2023-07-02T02:40:23;22.30;67.60
32173;DHT22;18679;45.190;5.722;2023-07-02T02:43:24;22.30;67.50
32173;DHT22;18679;45.190;5.722;2023-07-02T02:46:25;22.30;67.40
32173;DHT22;18679;45.190;5.722;2023-07-02T02:49:27;22.20;67.50
32173;DHT22;18679;45.190;5.722;2023-07-02T02:52:28;22.20;67.60
32173;DHT22;18679;45.190;5.722;2023-07-02T02:55:29;22.20;67.80
32173;DHT22;18679;45.190;5.722;2023-07-02T02:58:29;22.20;67.80
32173;DHT22;18679;45.190;5.722;2023-07-02T03:01:30;22.20;67.80
32173;DHT22;18679;45.190;5.722;2023-07-02T03:04:32;22.20;68.00
32173;DHT22;18679;45.190;5.722;2023-07-02T03:07:33;22.20;68.10
32173;DHT22;18679;45.190;5.722;2023-07-02T03:10:34;22.20;68.10
32173;DHT22;18679;45.190;5.722;2023-07-02T03:13:35;22.20;68.10
32173;DHT22;18679;45.190;5.722;2023-07-02T03:16:36;22.20;68.00
32173;DHT22;18679;45.190;5.722;2023-07-02T03:19:37;22.20;67.70
32173;DHT22;18679;45.190;5.722;2023-07-02T03:22:38;22.10;67.80
32173;DHT22;18679;45.190;5.722;2023-07-02T03:25:39;22.10;67.90
32173;DHT22;18679;45.190;5.722;2023-07-02T03:28:39;22.10;68.00
32173;DHT22;18679;45.190;5.722;2023-07-02T03:31:40;22.10;67.90
32173;DHT22;18679;45.190;5.722;2023-07-02T03:34:41;22.20;67.80
32173;DHT22;18679;45.190;5.722;2023-07-02T03:37:42;22.10;67.50
32173;DHT22;18679;45.190;5.722;2023-07-02T03:40:44;22.10;67.50
32173;DHT22;18679;45.190;5.722;2023-07-02T03:43:45;22.10;67.50
32173;DHT22;18679;45.190;5.722;2023-07-02T03:46:46;22.00;67.50
32173;DHT22;18679;45.190;5.722;2023-07-02T03:49:47;22.00;67.50
32173;DHT22;18679;45.190;5.722;2023-07-02T03:52:48;22.00;67.60
32173;DHT22;18679;45.190;5.722;2023-07-02T03:55:49;22.00;67.80
32173;DHT22;18679;45.190;5.722;2023-07-02T03:58:49;22.00;67.90
32173;DHT22;18679;45.190;5.722;2023-07-02T04:01:50;22.00;68.00
32173;DHT22;18679;45.190;5.722;2023-07-02T04:04:51;22.00;68.10
32173;DHT22;18679;45.190;5.722;2023-07-02T04:07:53;22.00;68.10
32173;DHT22;18679;45.190;5.722;2023-07-02T04:10:54;21.90;68.10
32173;DHT22;18679;45.190;5.722;2023-07-02T04:13:55;22.00;68.40
32173;DHT22;18679;45.190;5.722;2023-07-02T04:16:56;22.00;68.50
32173;DHT22;18679;45.190;5.722;2023-07-02T04:19:57;22.00;68.40
32173;DHT22;18679;45.190;5.722;2023-07-02T04:23:00;22.00;68.50
32173;DHT22;18679;45.190;5.722;2023-07-02T04:26:02;22.10;68.50
32173;DHT22;18679;45.190;5.722;2023-07-02T04:29:03;22.00;68.40
32173;DHT22;18679;45.190;5.722;2023-07-02T04:32:04;22.00;68.50
32173;DHT22;18679;45.190;5.722;2023-07-02T04:35:06;22.00;68.50
32173;DHT22;18679;45.190;5.722;2023-07-02T04:38:07;22.10;68.40
32173;DHT22;18679;45.190;5.722;2023-07-02T04:41:08;22.10;68.40
32173;DHT22;18679;45.190;5.722;2023-07-02T04:44:11;22.10;68.30
32173;DHT22;18679;45.190;5.722;2023-07-02T04:47:12;22.10;68.20
32173;DHT22;18679;45.190;5.722;2023-07-02T04:50:13;22.10;68.10
32173;DHT22;18679;45.190;5.722;2023-07-02T04:53:13;22.20;68.10
32173;DHT22;18679;45.190;5.722;2023-07-02T04:56:14;22.20;68.00
32173;DHT22;18679;45.190;5.722;2023-07-02T04:59:15;22.30;67.80
32173;DHT22;18679;45.190;5.722;2023-07-02T05:02:16;22.40;67.60
32173;DHT22;18679;45.190;5.722;2023-07-02T05:05:17;22.40;67.40
32173;DHT22;18679;45.190;5.722;2023-07-02T05:08:18;22.50;67.30
32173;DHT22;18679;45.190;5.722;2023-07-02T05:11:20;22.60;67.20
32173;DHT22;18679;45.190;5.722;2023-07-02T05:14:22;22.60;67.20
32173;DHT22;18679;45.190;5.722;2023-07-02T05:17:23;22.80;67.10
32173;DHT22;18679;45.190;5.722;2023-07-02T05:20:24;22.80;67.00
32173;DHT22;18679;45.190;5.722;2023-07-02T05:23:25;22.90;66.90
32173;DHT22;18679;45.190;5.722;2023-07-02T05:26:26;23.00;66.90
32173;DHT22;18679;45.190;5.722;2023-07-02T05:29:27;23.00;66.60
32173;DHT22;18679;45.190;5.722;2023-07-02T05:32:28;23.10;66.50
32173;DHT22;18679;45.190;5.722;2023-07-02T05:35:29;23.20;66.40
32173;DHT22;18679;45.190;5.722;2023-07-02T05:38:30;23.20;66.30
32173;DHT22;18679;45.190;5.722;2023-07-02T05:41:31;23.20;66.10
32173;DHT22;18679;45.190;5.722;2023-07-02T05:44:32;23.20;66.00
32173;DHT22;18679;45.190;5.722;2023-07-02T05:47:32;23.30;66.00
32173;DHT22;18679;45.190;5.722;2023-07-02T05:50:33;23.30;66.00
32173;DHT22;18679;45.190;5.722;2023-07-02T05:53:34;23.40;65.90
32173;DHT22;18679;45.190;5.722;2023-07-02T05:56:35;23.40;65.70
32173;DHT22;18679;45.190;5.722;2023-07-02T05:59:37;23.40;65.40
32173;DHT22;18679;45.190;5.722;2023-07-02T06:02:38;23.50;65.50
32173;DHT22;18679;45.190;5.722;2023-07-02T06:05:39;23.50;65.40
32173;DHT22;18679;45.190;5.722;2023-07-02T06:08:40;23.50;65.20
32173;DHT22;18679;45.190;5.722;2023-07-02T06:11:41;23.70;65.10
32173;DHT22;18679;45.190;5.722;2023-07-02T06:14:42;23.70;64.80
32173;DHT22;18679;45.190;5.722;2023-07-02T06:17:42;23.80;64.70
32173;DHT22;18679;45.190;5.722;2023-07-02T06:20:43;23.80;64.50
32173;DHT22;18679;45.190;5.722;2023-07-02T06:23:45;24.00;64.30
32173;DHT22;18679;45.190;5.722;2023-07-02T06:26:46;24.00;63.80
32173;DHT22;18679;45.190;5.722;2023-07-02T06:29:46;24.00;63.30
32173;DHT22;18679;45.190;5.722;2023-07-02T06:32:47;24.00;63.20
32173;DHT22;18679;45.190;5.722;2023-07-02T06:35:49;24.10;62.90
32173;DHT22;18679;45.190;5.722;2023-07-02T06:38:50;24.10;62.80
32173;DHT22;18679;45.190;5.722;2023-07-02T06:41:51;24.20;62.70
32173;DHT22;18679;45.190;5.722;2023-07-02T06:44:52;24.30;62.40
32173;DHT22;18679;45.190;5.722;2023-07-02T06:47:54;24.40;62.10
32173;DHT22;18679;45.190;5.722;2023-07-02T06:50:56;24.50;62.20
32173;DHT22;18679;45.190;5.722;2023-07-02T06:53:57;24.50;61.70
32173;DHT22;18679;45.190;5.722;2023-07-02T06:56:58;24.60;61.40
32173;DHT22;18679;45.190;5.722;2023-07-02T06:59:59;24.50;61.10
32173;DHT22;18679;45.190;5.722;2023-07-02T07:03:01;24.50;61.30
32173;DHT22;18679;45.190;5.722;2023-07-02T07:06:02;24.50;61.40
32173;DHT22;18679;45.190;5.722;2023-07-02T07:09:04;24.50;61.30
32173;DHT22;18679;45.190;5.722;2023-07-02T07:12:05;24.50;61.00
32173;DHT22;18679;45.190;5.722;2023-07-02T07:15:07;24.60;60.60
32173;DHT22;18679;45.190;5.722;2023-07-02T07:18:09;24.70;60.00
32173;DHT22;18679;45.190;5.722;2023-07-02T07:21:10;24.70;59.80
32173;DHT22;18679;45.190;5.722;2023-07-02T07:24:11;24.80;59.70
32173;DHT22;18679;45.190;5.722;2023-07-02T07:27:12;24.90;59.60
32173;DHT22;18679;45.190;5.722;2023-07-02T07:30:12;25.00;59.50
32173;DHT22;18679;45.190;5.722;2023-07-02T07:33:15;25.00;59.20
32173;DHT22;18679;45.190;5.722;2023-07-02T07:36:16;25.10;59.00
32173;DHT22;18679;45.190;5.722;2023-07-02T07:39:17;25.30;58.80
32173;DHT22;18679;45.190;5.722;2023-07-02T07:42:18;25.40;58.40
32173;DHT22;18679;45.190;5.722;2023-07-02T07:45:19;25.60;58.20
32173;DHT22;18679;45.190;5.722;2023-07-02T07:48:21;25.70;57.60
32173;DHT22;18679;45.190;5.722;2023-07-02T07:51:22;25.80;56.90
32173;DHT22;18679;45.190;5.722;2023-07-02T07:54:23;25.90;56.40
32173;DHT22;18679;45.190;5.722;2023-07-02T07:57:25;26.00;55.60
32173;DHT22;18679;45.190;5.722;2023-07-02T08:00:26;26.00;55.10
32173;DHT22;18679;45.190;5.722;2023-07-02T08:03:27;26.00;54.80
32173;DHT22;18679;45.190;5.722;2023-07-02T08:06:28;25.90;54.80
32173;DHT22;18679;45.190;5.722;2023-07-02T08:09:29;26.00;54.70
32173;DHT22;18679;45.190;5.722;2023-07-02T08:12:29;25.90;54.60
32173;DHT22;18679;45.190;5.722;2023-07-02T08:15:30;25.90;54.40
32173;DHT22;18679;45.190;5.722;2023-07-02T08:18:31;25.90;54.20
32173;DHT22;18679;45.190;5.722;2023-07-02T08:21:32;25.80;53.90
32173;DHT22;18679;45.190;5.722;2023-07-02T08:24:33;25.80;53.60
32173;DHT22;18679;45.190;5.722;2023-07-02T08:27:35;25.90;53.40
32173;DHT22;18679;45.190;5.722;2023-07-02T08:30:35;26.10;53.20
32173;DHT22;18679;45.190;5.722;2023-07-02T08:33:38;26.20;52.80
32173;DHT22;18679;45.190;5.722;2023-07-02T08:36:39;26.20;52.40
32173;DHT22;18679;45.190;5.722;2023-07-02T08:39:40;26.30;52.30
32173;DHT22;18679;45.190;5.722;2023-07-02T08:42:41;26.20;52.30
32173;DHT22;18679;45.190;5.722;2023-07-02T08:45:42;26.20;52.20
32173;DHT22;18679;45.190;5.722;2023-07-02T08:48:43;26.10;52.20
32173;DHT22;18679;45.190;5.722;2023-07-02T08:51:46;26.00;52.50
32173;DHT22;18679;45.190;5.722;2023-07-02T08:54:47;25.90;52.70
32173;DHT22;18679;45.190;5.722;2023-07-02T08:57:52;25.80;52.70
32173;DHT22;18679;45.190;5.722;2023-07-02T09:01:10;25.80;52.80
32173;DHT22;18679;45.190;5.722;2023-07-02T09:04:16;25.80;52.80
32173;DHT22;18679;45.190;5.722;2023-07-02T09:07:17;25.70;52.60
32173;DHT22;18679;45.190;5.722;2023-07-02T09:10:31;25.70;52.70
32173;DHT22;18679;45.190;5.722;2023-07-02T09:13:41;25.60;52.80
32173;DHT22;18679;45.190;5.722;2023-07-02T09:16:42;25.60;52.90
32173;DHT22;18679;45.190;5.722;2023-07-02T09:19:50;25.70;52.80
32173;DHT22;18679;45.190;5.722;2023-07-02T09:22:55;26.10;52.60
32173;DHT22;18679;45.190;5.722;2023-07-02T09:25:56;26.30;52.00
32173;DHT22;18679;45.190;5.722;2023-07-02T09:29:03;26.60;51.30
32173;DHT22;18679;45.190;5.722;2023-07-02T09:32:04;26.80;50.80
32173;DHT22;18679;45.190;5.722;2023-07-02T09:35:08;26.80;50.50
32173;DHT22;18679;45.190;5.722;2023-07-02T09:38:10;26.90;50.20
32173;DHT22;18679;45.190;5.722;2023-07-02T09:41:12;26.90;50.20
32173;DHT22;18679;45.190;5.722;2023-07-02T09:44:13;26.80;50.10
32173;DHT22;18679;45.190;5.722;2023-07-02T09:47:17;26.80;50.20
32173;DHT22;18679;45.190;5.722;2023-07-02T09:50:19;26.80;50.20
32173;DHT22;18679;45.190;5.722;2023-07-02T09:53:21;26.80;50.20
32173;DHT22;18679;45.190;5.722;2023-07-02T09:56:22;26.80;50.10
32173;DHT22;18679;45.190;5.722;2023-07-02T09:59:23;26.90;50.00
32173;DHT22;18679;45.190;5.722;2023-07-02T10:02:24;26.90;49.90
32173;DHT22;18679;45.190;5.722;2023-07-02T10:08:27;27.00;49.50
32173;DHT22;18679;45.190;5.722;2023-07-02T10:11:34;27.10;49.40
32173;DHT22;18679;45.190;5.722;2023-07-02T10:14:43;27.20;49.80
32173;DHT22;18679;45.190;5.722;2023-07-02T10:17:58;27.30;48.90
32173;DHT22;18679;45.190;5.722;2023-07-02T10:20:59;27.30;48.60
32173;DHT22;18679;45.190;5.722;2023-07-02T10:24:20;27.40;48.40
32173;DHT22;18679;45.190;5.722;2023-07-02T10:27:33;27.50;48.40
32173;DHT22;18679;45.190;5.722;2023-07-02T10:30:38;27.50;48.20
32173;DHT22;18679;45.190;5.722;2023-07-02T10:33:43;27.50;48.00
32173;DHT22;18679;45.190;5.722;2023-07-02T10:36:44;27.50;48.00
32173;DHT22;18679;45.190;5.722;2023-07-02T10:39:45;27.60;47.90
32173;DHT22;18679;45.190;5.722;2023-07-02T10:42:46;27.70;47.80
32173;DHT22;18679;45.190;5.722;2023-07-02T10:45:47;27.80;47.50
32173;DHT22;18679;45.190;5.722;2023-07-02T10:48:55;27.80;47.90
32173;DHT22;18679;45.190;5.722;2023-07-02T10:51:57;27.90;47.20
32173;DHT22;18679;45.190;5.722;2023-07-02T10:54:58;27.90;46.90
32173;DHT22;18679;45.190;5.722;2023-07-02T10:58:09;27.90;46.60
32173;DHT22;18679;45.190;5.722;2023-07-02T11:01:10;27.90;46.80
32173;DHT22;18679;45.190;5.722;2023-07-02T11:04:11;27.80;46.80
32173;DHT22;18679;45.190;5.722;2023-07-02T11:07:14;27.80;46.80
32173;DHT22;18679;45.190;5.722;2023-07-02T11:10:19;28.00;46.50
32173;DHT22;18679;45.190;5.722;2023-07-02T11:13:20;28.90;45.30
32173;DHT22;18679;45.190;5.722;2023-07-02T11:16:28;30.00;43.80
32173;DHT22;18679;45.190;5.722;2023-07-02T11:19:29;31.00;42.20
32173;DHT22;18679;45.190;5.722;2023-07-02T11:22:34;31.70;40.60
32173;DHT22;18679;45.190;5.722;2023-07-02T11:25:35;32.20;39.50
32173;DHT22;18679;45.190;5.722;2023-07-02T11:28:47;32.50;38.60
32173;DHT22;18679;45.190;5.722;2023-07-02T11:31:48;32.90;37.90
32173;DHT22;18679;45.190;5.722;2023-07-02T11:34:53;33.20;37.30
32173;DHT22;18679;45.190;5.722;2023-07-02T11:37:54;33.50;36.80
32173;DHT22;18679;45.190;5.722;2023-07-02T11:40:55;33.80;36.30
32173;DHT22;18679;45.190;5.722;2023-07-02T11:43:56;33.70;36.00
32173;DHT22;18679;45.190;5.722;2023-07-02T11:46:57;33.60;35.80
32173;DHT22;18679;45.190;5.722;2023-07-02T11:49:58;33.80;35.20
32173;DHT22;18679;45.190;5.722;2023-07-02T11:53:01;34.10;34.60
32173;DHT22;18679;45.190;5.722;2023-07-02T11:56:03;34.60;33.90
32173;DHT22;18679;45.190;5.722;2023-07-02T11:59:04;34.70;33.40
32173;DHT22;18679;45.190;5.722;2023-07-02T12:02:05;34.90;32.60
32173;DHT22;18679;45.190;5.722;2023-07-02T12:05:06;34.90;32.30
32173;DHT22;18679;45.190;5.722;2023-07-02T12:08:07;34.80;32.30
32173;DHT22;18679;45.190;5.722;2023-07-02T12:11:10;34.80;32.30
32173;DHT22;18679;45.190;5.722;2023-07-02T12:14:11;34.90;32.40
32173;DHT22;18679;45.190;5.722;2023-07-02T12:17:12;35.00;32.30
32173;DHT22;18679;45.190;5.722;2023-07-02T12:20:13;35.00;32.10
32173;DHT22;18679;45.190;5.722;2023-07-02T12:23:14;34.90;32.30
32173;DHT22;18679;45.190;5.722;2023-07-02T12:26:15;34.90;32.10
32173;DHT22;18679;45.190;5.722;2023-07-02T12:29:16;34.90;31.90
32173;DHT22;18679;45.190;5.722;2023-07-02T12:32:17;35.00;31.70
32173;DHT22;18679;45.190;5.722;2023-07-02T12:35:18;35.10;31.50
32173;DHT22;18679;45.190;5.722;2023-07-02T12:38:21;35.00;31.30
32173;DHT22;18679;45.190;5.722;2023-07-02T12:41:22;35.00;31.50
32173;DHT22;18679;45.190;5.722;2023-07-02T12:44:23;34.80;31.60
32173;DHT22;18679;45.190;5.722;2023-07-02T12:47:24;34.20;32.30
32173;DHT22;18679;45.190;5.722;2023-07-02T12:50:25;33.50;33.10
32173;DHT22;18679;45.190;5.722;2023-07-02T12:53:27;32.90;33.90
32173;DHT22;18679;45.190;5.722;2023-07-02T12:56:28;32.40;34.60
32173;DHT22;18679;45.190;5.722;2023-07-02T12:59:28;31.90;35.30
32173;DHT22;18679;45.190;5.722;2023-07-02T13:02:30;31.80;35.90
32173;DHT22;18679;45.190;5.722;2023-07-02T13:05:31;32.40;35.40
32173;DHT22;18679;45.190;5.722;2023-07-02T13:08:31;33.30;33.90
32173;DHT22;18679;45.190;5.722;2023-07-02T13:11:32;34.00;32.50
32173;DHT22;18679;45.190;5.722;2023-07-02T13:14:34;34.50;31.60
32173;DHT22;18679;45.190;5.722;2023-07-02T13:17:35;35.40;30.00
32173;DHT22;18679;45.190;5.722;2023-07-02T13:20:35;36.00;29.20
32173;DHT22;18679;45.190;5.722;2023-07-02T13:23:36;36.40;28.50
32173;DHT22;18679;45.190;5.722;2023-07-02T13:26:37;36.70;28.10
32173;DHT22;18679;45.190;5.722;2023-07-02T13:29:38;36.30;28.20
32173;DHT22;18679;45.190;5.722;2023-07-02T13:32:39;36.60;28.40
32173;DHT22;18679;45.190;5.722;2023-07-02T13:35:40;37.30;27.80
32173;DHT22;18679;45.190;5.722;2023-07-02T13:38:42;38.00;27.20
32173;DHT22;18679;45.190;5.722;2023-07-02T13:41:43;38.80;26.50
32173;DHT22;18679;45.190;5.722;2023-07-02T13:44:44;39.20;26.00
32173;DHT22;18679;45.190;5.722;2023-07-02T13:47:45;39.60;25.50
32173;DHT22;18679;45.190;5.722;2023-07-02T13:50:46;40.10;25.10
32173;DHT22;18679;45.190;5.722;2023-07-02T13:53:47;40.50;24.40
32173;DHT22;18679;45.190;5.722;2023-07-02T13:56:47;40.40;24.30
32173;DHT22;18679;45.190;5.722;2023-07-02T13:59:48;40.50;24.20
32173;DHT22;18679;45.190;5.722;2023-07-02T14:02:49;40.40;24.10
32173;DHT22;18679;45.190;5.722;2023-07-02T14:05:50;40.60;24.10
32173;DHT22;18679;45.190;5.722;2023-07-02T14:08:51;40.90;23.80
32173;DHT22;18679;45.190;5.722;2023-07-02T14:11:52;41.00;23.70
32173;DHT22;18679;45.190;5.722;2023-07-02T14:14:53;41.00;23.80
32173;DHT22;18679;45.190;5.722;2023-07-02T14:17:54;41.10;23.70
32173;DHT22;18679;45.190;5.722;2023-07-02T14:20:55;41.30;23.60
32173;DHT22;18679;45.190;5.722;2023-07-02T14:23:57;41.70;23.30
32173;DHT22;18679;45.190;5.722;2023-07-02T14:26:58;42.00;23.10
32173;DHT22;18679;45.190;5.722;2023-07-02T14:29:59;42.10;22.90
32173;DHT22;18679;45.190;5.722;2023-07-02T14:33:01;42.30;22.70
32173;DHT22;18679;45.190;5.722;2023-07-02T14:36:03;42.40;22.50
32173;DHT22;18679;45.190;5.722;2023-07-02T14:39:05;42.50;22.30
32173;DHT22;18679;45.190;5.722;2023-07-02T14:42:05;42.30;22.30
32173;DHT22;18679;45.190;5.722;2023-07-02T14:45:07;42.20;22.50
32173;DHT22;18679;45.190;5.722;2023-07-02T14:48:09;42.40;22.20
32173;DHT22;18679;45.190;5.722;2023-07-02T14:51:10;42.20;22.10
32173;DHT22;18679;45.190;5.722;2023-07-02T14:54:11;42.00;22.30
32173;DHT22;18679;45.190;5.722;2023-07-02T14:57:12;41.90;22.40
32173;DHT22;18679;45.190;5.722;2023-07-02T15:00:14;42.00;22.50
32173;DHT22;18679;45.190;5.722;2023-07-02T15:03:15;42.00;22.30
32173;DHT22;18679;45.190;5.722;2023-07-02T15:06:18;42.10;22.30
32173;DHT22;18679;45.190;5.722;2023-07-02T15:09:19;42.20;22.30
32173;DHT22;18679;45.190;5.722;2023-07-02T15:12:20;42.50;21.90
32173;DHT22;18679;45.190;5.722;2023-07-02T15:15:21;42.30;22.10
32173;DHT22;18679;45.190;5.722;2023-07-02T15:18:23;42.10;21.90
32173;DHT22;18679;45.190;5.722;2023-07-02T15:21:24;42.10;22.10
32173;DHT22;18679;45.190;5.722;2023-07-02T15:24:25;42.00;22.20
32173;DHT22;18679;45.190;5.722;2023-07-02T15:27:25;42.00;22.20
32173;DHT22;18679;45.190;5.722;2023-07-02T15:30:26;42.00;22.30
32173;DHT22;18679;45.190;5.722;2023-07-02T15:33:28;41.90;22.50
32173;DHT22;18679;45.190;5.722;2023-07-02T15:36:30;41.80;22.40
32173;DHT22;18679;45.190;5.722;2023-07-02T15:39:36;41.60;22.40
32173;DHT22;18679;45.190;5.722;2023-07-02T15:42:37;41.50;22.50
32173;DHT22;18679;45.190;5.722;2023-07-02T15:45:37;41.90;22.40
32173;DHT22;18679;45.190;5.722;2023-07-02T15:48:38;42.00;22.20
32173;DHT22;18679;45.190;5.722;2023-07-02T15:51:39;42.10;22.10
32173;DHT22;18679;45.190;5.722;2023-07-02T15:54:41;42.10;22.10
32173;DHT22;18679;45.190;5.722;2023-07-02T15:57:42;42.20;22.20
32173;DHT22;18679;45.190;5.722;2023-07-02T16:00:42;42.20;22.10
32173;DHT22;18679;45.190;5.722;2023-07-02T16:03:43;42.10;22.20
32173;DHT22;18679;45.190;5.722;2023-07-02T16:06:45;42.40;22.30
32173;DHT22;18679;45.190;5.722;2023-07-02T16:09:46;42.50;21.80
32173;DHT22;18679;45.190;5.722;2023-07-02T16:12:47;42.30;21.80
32173;DHT22;18679;45.190;5.722;2023-07-02T16:15:49;41.80;22.20
32173;DHT22;18679;45.190;5.722;2023-07-02T16:18:49;41.40;22.60
32173;DHT22;18679;45.190;5.722;2023-07-02T16:21:51;41.10;23.10
32173;DHT22;18679;45.190;5.722;2023-07-02T16:24:52;40.50;23.60
32173;DHT22;18679;45.190;5.722;2023-07-02T16:27:52;40.10;24.30
32173;DHT22;18679;45.190;5.722;2023-07-02T16:30:53;39.70;24.70
32173;DHT22;18679;45.190;5.722;2023-07-02T16:33:54;39.50;25.00
32173;DHT22;18679;45.190;5.722;2023-07-02T16:36:56;39.50;25.10
32173;DHT22;18679;45.190;5.722;2023-07-02T16:39:57;39.20;25.20
32173;DHT22;18679;45.190;5.722;2023-07-02T16:42:58;39.00;25.70
32173;DHT22;18679;45.190;5.722;2023-07-02T16:45:58;39.00;25.70
32173;DHT22;18679;45.190;5.722;2023-07-02T16:48:59;39.00;25.70
32173;DHT22;18679;45.190;5.722;2023-07-02T16:52:00;38.60;25.90
32173;DHT22;18679;45.190;5.722;2023-07-02T16:55:01;38.30;26.30
32173;DHT22;18679;45.190;5.722;2023-07-02T16:58:02;38.20;26.40
32173;DHT22;18679;45.190;5.722;2023-07-02T17:01:09;38.20;26.30
32173;DHT22;18679;45.190;5.722;2023-07-02T17:04:10;37.80;26.60
32173;DHT22;18679;45.190;5.722;2023-07-02T17:07:14;37.00;27.30
32173;DHT22;18679;45.190;5.722;2023-07-02T17:10:14;35.90;28.30
32173;DHT22;18679;45.190;5.722;2023-07-02T17:13:15;34.80;29.30
32173;DHT22;18679;45.190;5.722;2023-07-02T17:16:16;34.00;30.30
32173;DHT22;18679;45.190;5.722;2023-07-02T17:19:29;33.30;31.30
32173;DHT22;18679;45.190;5.722;2023-07-02T17:22:31;32.60;32.30
32173;DHT22;18679;45.190;5.722;2023-07-02T17:25:32;32.10;32.90
32173;DHT22;18679;45.190;5.722;2023-07-02T17:28:33;31.70;33.80
32173;DHT22;18679;45.190;5.722;2023-07-02T17:31:34;31.30;34.40
32173;DHT22;18679;45.190;5.722;2023-07-02T17:34:36;30.90;34.90
32173;DHT22;18679;45.190;5.722;2023-07-02T17:37:37;30.70;35.30
32173;DHT22;18679;45.190;5.722;2023-07-02T17:40:41;30.50;35.40
32173;DHT22;18679;45.190;5.722;2023-07-02T17:43:42;30.30;35.60
32173;DHT22;18679;45.190;5.722;2023-07-02T17:46:43;30.20;35.90
32173;DHT22;18679;45.190;5.722;2023-07-02T17:49:46;30.10;35.90
32173;DHT22;18679;45.190;5.722;2023-07-02T17:52:47;30.00;35.90
32173;DHT22;18679;45.190;5.722;2023-07-02T17:55:48;30.00;36.10
32173;DHT22;18679;45.190;5.722;2023-07-02T17:58:51;29.80;36.00
32173;DHT22;18679;45.190;5.722;2023-07-02T18:01:52;29.80;36.10
32173;DHT22;18679;45.190;5.722;2023-07-02T18:04:54;29.70;36.20
32173;DHT22;18679;45.190;5.722;2023-07-02T18:07:55;29.60;36.60
32173;DHT22;18679;45.190;5.722;2023-07-02T18:10:56;29.40;37.00
32173;DHT22;18679;45.190;5.722;2023-07-02T18:13:58;29.20;37.40
32173;DHT22;18679;45.190;5.722;2023-07-02T18:16:59;29.00;37.80
32173;DHT22;18679;45.190;5.722;2023-07-02T18:20:00;28.90;38.40
32173;DHT22;18679;45.190;5.722;2023-07-02T18:23:01;28.80;38.90
32173;DHT22;18679;45.190;5.722;2023-07-02T18:26:02;28.60;39.00
32173;DHT22;18679;45.190;5.722;2023-07-02T18:29:04;28.60;39.30
32173;DHT22;18679;45.190;5.722;2023-07-02T18:32:06;28.50;39.60
32173;DHT22;18679;45.190;5.722;2023-07-02T18:35:07;28.40;39.80
32173;DHT22;18679;45.190;5.722;2023-07-02T18:38:09;28.40;40.00
32173;DHT22;18679;45.190;5.722;2023-07-02T18:41:11;28.30;40.20
32173;DHT22;18679;45.190;5.722;2023-07-02T18:44:12;28.20;40.40
32173;DHT22;18679;45.190;5.722;2023-07-02T18:47:13;28.10;41.30
32173;DHT22;18679;45.190;5.722;2023-07-02T18:50:15;28.10;41.00
32173;DHT22;18679;45.190;5.722;2023-07-02T18:53:18;28.00;41.10
32173;DHT22;18679;45.190;5.722;2023-07-02T18:56:19;28.00;41.20
32173;DHT22;18679;45.190;5.722;2023-07-02T18:59:20;27.90;41.20
32173;DHT22;18679;45.190;5.722;2023-07-02T19:02:21;28.00;41.20
32173;DHT22;18679;45.190;5.722;2023-07-02T19:05:23;28.10;41.30
32173;DHT22;18679;45.190;5.722;2023-07-02T19:08:24;27.90;41.10